createdAt,value
2023-05-28T00:01:30.230Z,9.47
2023-05-28T00:06:31.961Z,9.47
2023-05-28T00:11:33.783Z,9.46
2023-05-28T00:16:38.662Z,9.44
2023-05-28T00:21:40.523Z,9.43
2023-05-28T00:26:42.249Z,9.38
2023-05-28T00:31:44.095Z,9.29
2023-05-28T00:36:46.097Z,9.17
2023-05-28T00:41:48.090Z,9.07
2023-05-28T00:46:50.597Z,8.96
2023-05-28T00:51:53.175Z,8.87
2023-05-28T00:56:55.362Z,8.76
2023-05-28T01:01:58.288Z,8.63
2023-05-28T01:07:01.229Z,8.50
2023-05-28T01:12:04.757Z,8.40
2023-05-28T01:17:07.406Z,8.27
2023-05-28T01:22:16.730Z,8.17
2023-05-28T01:27:19.624Z,8.16
2023-05-28T01:32:21.545Z,8.17
2023-05-28T01:37:25.778Z,8.16
2023-05-28T01:42:29.270Z,8.16
2023-05-28T01:47:41.917Z,8.15
2023-05-28T01:52:45.375Z,8.16
2023-05-28T01:57:47.188Z,8.18
2023-05-28T02:02:49.177Z,8.15
2023-05-28T02:07:53.531Z,8.07
2023-05-28T02:12:55.774Z,7.99
2023-05-28T02:17:57.693Z,7.90
2023-05-28T02:22:59.951Z,7.83
2023-05-28T02:28:01.805Z,7.83
2023-05-28T02:33:04.541Z,7.87
2023-05-28T02:38:07.089Z,7.88
2023-05-28T02:43:08.922Z,7.89
2023-05-28T02:48:10.841Z,7.91
2023-05-28T02:53:12.722Z,7.91
2023-05-28T02:58:15.747Z,7.89
2023-05-28T03:03:17.938Z,7.91
2023-05-28T03:08:20.137Z,8.01
2023-05-28T03:13:22.053Z,8.28
2023-05-28T03:18:24.141Z,8.56
2023-05-28T03:23:26.057Z,8.78
2023-05-28T03:28:40.220Z,8.99
2023-05-28T03:33:57.841Z,9.25
2023-05-28T03:38:59.504Z,9.59
2023-05-28T03:44:01.637Z,9.89
2023-05-28T03:49:03.881Z,10.36
2023-05-28T03:54:05.990Z,10.85
2023-05-28T03:59:07.820Z,11.32
2023-05-28T04:07:13.293Z,11.93
2023-05-28T04:12:15.175Z,12.28
2023-05-28T04:17:17.287Z,12.68
2023-05-28T04:22:19.061Z,13.13
2023-05-28T04:27:22.430Z,13.61
2023-05-28T04:32:25.195Z,14.06
2023-05-28T04:37:26.930Z,14.55
2023-05-28T04:42:29.296Z,14.92
2023-05-28T04:47:31.328Z,15.16
2023-05-28T04:52:36.672Z,15.45
2023-05-28T04:57:38.502Z,15.72
2023-05-28T05:02:42.861Z,15.91
2023-05-28T05:07:44.971Z,16.08
2023-05-28T05:12:48.678Z,16.29
2023-05-28T05:17:50.538Z,16.56
2023-05-28T05:22:52.381Z,16.73
2023-05-28T05:27:54.533Z,16.79
2023-05-28T05:32:56.395Z,16.86
2023-05-28T05:37:59.750Z,17.06
2023-05-28T05:43:24.069Z,17.34
2023-05-28T05:48:28.973Z,17.61
2023-05-28T05:53:30.916Z,17.88
2023-05-28T05:58:33.534Z,18.12
2023-05-28T06:03:36.359Z,18.48
2023-05-28T06:08:57.198Z,18.84
2023-05-28T06:14:11.282Z,19.23
2023-05-28T06:19:13.107Z,19.48
2023-05-28T06:24:15.067Z,19.71
2023-05-28T06:29:19.597Z,19.79
2023-05-28T06:34:21.425Z,19.78
2023-05-28T06:39:23.901Z,19.91
2023-05-28T06:44:27.545Z,20.07
2023-05-28T06:49:32.718Z,20.16
2023-05-28T06:54:34.600Z,20.28
2023-05-28T06:59:36.523Z,20.49
2023-05-28T07:04:45.376Z,20.67
2023-05-28T07:09:51.860Z,20.85
2023-05-28T07:14:54.947Z,20.98
2023-05-28T07:19:58.244Z,21.15
2023-05-28T07:25:21.533Z,21.46
2023-05-28T07:30:23.325Z,21.65
2023-05-28T07:35:29.339Z,21.73
2023-05-28T07:40:31.118Z,22.00
2023-05-28T07:45:45.100Z,22.38
2023-05-28T07:50:47.137Z,22.66
2023-05-28T07:56:01.582Z,22.90
2023-05-28T08:01:10.184Z,22.98
2023-05-28T08:06:12.674Z,23.14
2023-05-28T08:11:15.619Z,23.01
2023-05-28T08:16:26.681Z,22.29
2023-05-28T08:21:47.556Z,22.33
2023-05-28T08:26:50.153Z,22.73
2023-05-28T08:31:52.625Z,22.75
2023-05-28T08:37:12.020Z,23.11
2023-05-28T08:42:29.747Z,23.19
2023-05-28T08:47:34.315Z,22.94
2023-05-28T08:52:45.888Z,22.95
2023-05-28T08:57:48.432Z,23.03
2023-05-28T09:02:50.973Z,23.40
2023-05-28T09:07:54.060Z,23.77
2023-05-28T09:13:01.197Z,23.87
2023-05-28T09:18:06.207Z,23.85
2023-05-28T09:23:09.821Z,24.04
2023-05-28T09:28:30.959Z,24.04
2023-05-28T09:33:43.281Z,23.98
2023-05-28T09:38:45.435Z,23.97
2023-05-28T09:43:55.800Z,24.08
2023-05-28T09:48:58.033Z,24.50
2023-05-28T09:54:01.858Z,25.04
2023-05-28T09:59:04.185Z,25.28
2023-05-28T10:04:09.904Z,25.26
2023-05-28T10:09:15.854Z,25.74
2023-05-28T10:14:18.597Z,26.15
2023-05-28T10:19:21.433Z,26.75
2023-05-28T10:24:23.722Z,26.70
2023-05-28T10:29:38.330Z,26.53
2023-05-28T10:34:40.110Z,26.25
2023-05-28T10:39:48.882Z,26.17
2023-05-28T10:45:11.588Z,26.06
2023-05-28T10:50:18.739Z,25.81
2023-05-28T10:55:21.721Z,26.10
2023-05-28T11:00:25.662Z,26.14
2023-05-28T11:05:27.461Z,26.36
2023-05-28T11:10:31.132Z,26.86
2023-05-28T11:15:34.255Z,27.04
2023-05-28T11:20:36.543Z,27.18
2023-05-28T11:25:43.278Z,27.09
2023-05-28T11:30:44.962Z,27.16
2023-05-28T11:35:46.701Z,27.61
2023-05-28T11:40:48.422Z,27.74
2023-05-28T11:45:51.170Z,28.23
2023-05-28T11:51:02.103Z,27.80
2023-05-28T11:56:04.103Z,27.33
2023-05-28T12:01:06.142Z,27.71
2023-05-28T12:06:07.938Z,28.07
2023-05-28T12:11:10.725Z,28.83
2023-05-28T12:16:14.050Z,29.19
2023-05-28T12:21:20.300Z,28.76
2023-05-28T12:26:22.935Z,28.54
2023-05-28T12:31:30.978Z,28.57
2023-05-28T12:36:34.118Z,28.30
2023-05-28T12:41:36.394Z,28.69
2023-05-28T12:46:38.264Z,29.18
2023-05-28T12:51:40.628Z,29.31
2023-05-28T12:56:42.621Z,29.36
2023-05-28T13:01:44.764Z,29.50
2023-05-28T13:06:46.596Z,29.50
2023-05-28T13:11:48.482Z,29.23
2023-05-28T13:16:50.211Z,29.46
2023-05-28T13:21:52.318Z,29.64
2023-05-28T13:26:54.047Z,29.46
2023-05-28T13:31:55.814Z,29.60
2023-05-28T13:36:57.649Z,29.71
2023-05-28T13:41:59.970Z,29.18
2023-05-28T13:47:03.116Z,29.33
2023-05-28T13:52:05.845Z,29.51
2023-05-28T13:57:07.671Z,29.11
2023-05-28T14:02:09.412Z,29.00
2023-05-28T14:07:11.462Z,29.19
2023-05-28T14:12:19.871Z,29.86
2023-05-28T14:17:23.928Z,29.72
2023-05-28T14:22:26.473Z,29.79
2023-05-28T14:27:28.510Z,30.56
2023-05-28T14:32:30.532Z,30.98
2023-05-28T14:37:32.432Z,30.69
2023-05-28T14:42:34.303Z,30.55
2023-05-28T14:47:36.552Z,30.51
2023-05-28T14:52:38.725Z,30.13
2023-05-28T14:57:40.725Z,30.01
2023-05-28T15:02:43.248Z,30.03
2023-05-28T15:07:45.177Z,29.34
2023-05-28T15:12:46.991Z,29.15
2023-05-28T15:17:48.697Z,29.01
2023-05-28T15:22:50.456Z,29.07
2023-05-28T15:27:55.520Z,29.10
2023-05-28T15:32:59.473Z,29.26
2023-05-28T15:38:01.583Z,29.42
2023-05-28T15:43:07.202Z,29.44
2023-05-28T15:48:09.030Z,29.86
2023-05-28T15:53:11.257Z,30.23
2023-05-28T15:58:13.390Z,30.06
2023-05-28T16:03:16.217Z,29.59
2023-05-28T16:08:18.569Z,28.99
2023-05-28T16:13:25.124Z,28.33
2023-05-28T16:18:29.442Z,27.75
2023-05-28T16:23:32.409Z,27.44
2023-05-28T16:28:34.776Z,27.44
2023-05-28T16:33:36.574Z,27.17
2023-05-28T16:38:38.502Z,26.68
2023-05-28T16:43:40.993Z,26.29
2023-05-28T16:48:43.231Z,26.05
2023-05-28T16:53:45.176Z,25.91
2023-05-28T16:58:48.309Z,25.45
2023-05-28T17:03:50.509Z,24.73
2023-05-28T17:08:52.510Z,24.24
2023-05-28T17:13:54.325Z,23.97
2023-05-28T17:18:56.438Z,23.84
2023-05-28T17:23:58.965Z,23.84
2023-05-28T17:29:00.896Z,23.76
2023-05-28T17:34:03.022Z,23.44
2023-05-28T17:39:05.106Z,23.18
2023-05-28T17:44:08.115Z,22.85
2023-05-28T17:49:09.848Z,22.58
2023-05-28T17:54:12.702Z,22.27
2023-05-28T17:59:15.007Z,21.69
2023-05-28T18:04:16.818Z,21.12
2023-05-28T18:09:20.209Z,20.63
2023-05-28T18:14:22.054Z,20.20
2023-05-28T18:19:23.871Z,19.97
2023-05-28T18:24:25.841Z,19.52
2023-05-28T18:29:27.579Z,19.03
2023-05-28T18:34:29.293Z,18.56
2023-05-28T18:39:31.031Z,18.17
2023-05-28T18:44:33.469Z,17.80
2023-05-28T18:49:37.280Z,17.50
2023-05-28T18:54:38.999Z,17.24
2023-05-28T18:59:42.248Z,16.97
2023-05-28T19:04:44.220Z,16.72
2023-05-28T19:09:47.492Z,16.47
2023-05-28T19:14:49.889Z,16.24
2023-05-28T19:19:51.665Z,16.00
2023-05-28T19:25:01.028Z,15.77
2023-05-28T19:30:04.866Z,15.55
2023-05-28T19:35:07.284Z,15.36
2023-05-28T19:40:09.879Z,15.18
2023-05-28T19:45:12.348Z,15.04
2023-05-28T19:50:14.081Z,14.89
2023-05-28T19:55:16.009Z,14.73
2023-05-28T20:00:18.223Z,14.58
2023-05-28T20:05:20.018Z,14.44
2023-05-28T20:10:21.853Z,14.29
2023-05-28T20:15:23.746Z,14.17
2023-05-28T20:20:26.023Z,14.04
2023-05-28T20:25:30.142Z,13.91
2023-05-28T20:30:32.409Z,13.76
2023-05-28T20:35:34.433Z,13.60
2023-05-28T20:40:36.230Z,13.46
2023-05-28T20:45:39.817Z,13.35
2023-05-28T20:50:41.868Z,13.30
2023-05-28T20:55:43.629Z,13.27
2023-05-28T21:00:45.316Z,13.17
2023-05-28T21:05:47.062Z,13.03
2023-05-28T21:10:53.908Z,12.90
2023-05-28T21:16:02.541Z,12.82
2023-05-28T21:21:04.540Z,12.75
2023-05-28T21:26:06.281Z,12.66
2023-05-28T21:31:08.068Z,12.56
2023-05-28T21:36:10.136Z,12.45
2023-05-28T21:41:15.692Z,12.30
2023-05-28T21:46:18.725Z,12.11
2023-05-28T21:51:21.873Z,11.89
2023-05-28T21:56:23.622Z,11.61
2023-05-28T22:01:25.699Z,11.35
2023-05-28T22:06:27.509Z,11.13
2023-05-28T22:11:29.338Z,10.92
2023-05-28T22:16:32.111Z,10.73
2023-05-28T22:21:33.950Z,10.61
2023-05-28T22:26:35.792Z,10.52
2023-05-28T22:31:37.550Z,10.43
2023-05-28T22:36:39.538Z,10.35
2023-05-28T22:41:41.344Z,10.24
2023-05-28T22:46:43.190Z,10.11
2023-05-28T22:51:46.101Z,9.97
2023-05-28T22:56:48.198Z,9.85
2023-05-28T23:01:50.668Z,9.74
2023-05-28T23:06:52.943Z,9.65
2023-05-28T23:11:56.040Z,9.69
2023-05-28T23:16:58.885Z,9.76
2023-05-28T23:22:00.700Z,9.82
2023-05-28T23:27:02.717Z,9.91
2023-05-28T23:32:06.663Z,9.95
2023-05-28T23:37:08.388Z,9.95
2023-05-28T23:42:11.115Z,9.94
2023-05-28T23:47:15.407Z,9.87
2023-05-28T23:52:19.840Z,9.75
2023-05-28T23:57:21.637Z,9.64
